sensor_id;sensor_type;location;lat;lon;timestamp;temperature;humidity
8220;DHT22;4151;51.110;7.020;2023-07-20T00:00:53;16.90;99.90
8220;DHT22;4151;51.110;7.020;2023-07-20T00:03:19;16.90;99.90
8220;DHT22;4151;51.110;7.020;2023-07-20T00:05:51;16.80;99.90
8220;DHT22;4151;51.110;7.020;2023-07-20T00:08:17;16.80;99.90
8220;DHT22;4151;51.110;7.020;2023-07-20T00:10:43;16.90;99.90
8220;DHT22;4151;51.110;7.020;2023-07-20T00:13:13;16.90;99.90
8220;DHT22;4151;51.110;7.020;2023-07-20T00:15:41;16.90;99.90
8220;DHT22;4151;51.110;7.020;2023-07-20T00:18:06;16.90;99.90
8220;DHT22;4151;51.110;7.020;2023-07-20T00:20:32;16.90;99.90
8220;DHT22;4151;51.110;7.020;2023-07-20T00:22:58;16.90;99.90
8220;DHT22;4151;51.110;7.020;2023-07-20T00:25:27;16.80;99.90
8220;DHT22;4151;51.110;7.020;2023-07-20T00:27:52;16.80;99.90
8220;DHT22;4151;51.110;7.020;2023-07-20T00:30:18;16.80;99.90
8220;DHT22;4151;51.110;7.020;2023-07-20T00:32:44;16.70;99.90
8220;DHT22;4151;51.110;7.020;2023-07-20T00:35:10;16.70;99.90
8220;DHT22;4151;51.110;7.020;2023-07-20T00:37:36;16.70;99.90
8220;DHT22;4151;51.110;7.020;2023-07-20T00:40:02;16.70;99.90
8220;DHT22;4151;51.110;7.020;2023-07-20T00:42:31;16.70;99.90
8220;DHT22;4151;51.110;7.020;2023-07-20T00:44:56;16.80;99.90
8220;DHT22;4151;51.110;7.020;2023-07-20T00:47:22;16.80;99.90
8220;DHT22;4151;51.110;7.020;2023-07-20T00:49:48;16.80;99.90
8220;DHT22;4151;51.110;7.020;2023-07-20T00:52:14;16.80;99.90
8220;DHT22;4151;51.110;7.020;2023-07-20T00:54:40;16.90;99.90
8220;DHT22;4151;51.110;7.020;2023-07-20T00:57:07;16.90;99.90
8220;DHT22;4151;51.110;7.020;2023-07-20T00:59:34;16.80;99.90
8220;DHT22;4151;51.110;7.020;2023-07-20T01:02:01;16.80;99.90
8220;DHT22;4151;51.110;7.020;2023-07-20T01:04:27;16.80;99.90
8220;DHT22;4151;51.110;7.020;2023-07-20T01:07:32;16.80;99.90
8220;DHT22;4151;51.110;7.020;2023-07-20T01:10:12;16.80;99.90
8220;DHT22;4151;51.110;7.020;2023-07-20T01:12:43;16.70;99.90
8220;DHT22;4151;51.110;7.020;2023-07-20T01:15:09;16.70;99.90
8220;DHT22;4151;51.110;7.020;2023-07-20T01:17:35;16.80;99.90
8220;DHT22;4151;51.110;7.020;2023-07-20T01:20:01;16.80;99.90
8220;DHT22;4151;51.110;7.020;2023-07-20T01:30:59;16.70;99.90
8220;DHT22;4151;51.110;7.020;2023-07-20T01:33:28;16.70;99.90
8220;DHT22;4151;51.110;7.020;2023-07-20T01:35:58;16.70;99.90
8220;DHT22;4151;51.110;7.020;2023-07-20T01:38:24;16.70;99.90
8220;DHT22;4151;51.110;7.020;2023-07-20T01:40:50;16.70;99.90
8220;DHT22;4151;51.110;7.020;2023-07-20T01:43:17;16.70;99.90
8220;DHT22;4151;51.110;7.020;2023-07-20T01:45:43;16.80;99.90
8220;DHT22;4151;51.110;7.020;2023-07-20T01:48:09;16.80;99.90
8220;DHT22;4151;51.110;7.020;2023-07-20T01:50:34;16.80;99.90
8220;DHT22;4151;51.110;7.020;2023-07-20T01:53:01;16.90;99.90
8220;DHT22;4151;51.110;7.020;2023-07-20T01:55:27;16.90;99.90
8220;DHT22;4151;51.110;7.020;2023-07-20T01:57:53;16.90;99.90
8220;DHT22;4151;51.110;7.020;2023-07-20T02:00:18;16.90;99.90
8220;DHT22;4151;51.110;7.020;2023-07-20T02:02:46;16.90;99.90
8220;DHT22;4151;51.110;7.020;2023-07-20T02:05:12;16.90;99.90
8220;DHT22;4151;51.110;7.020;2023-07-20T02:07:38;16.90;99.90
8220;DHT22;4151;51.110;7.020;2023-07-20T02:10:04;16.80;99.90
8220;DHT22;4151;51.110;7.020;2023-07-20T02:12:29;16.80;99.90
8220;DHT22;4151;51.110;7.020;2023-07-20T02:14:55;16.80;99.90
8220;DHT22;4151;51.110;7.020;2023-07-20T02:17:21;16.80;99.90
8220;DHT22;4151;51.110;7.020;2023-07-20T02:19:46;16.80;99.90
8220;DHT22;4151;51.110;7.020;2023-07-20T02:22:15;16.80;99.90
8220;DHT22;4151;51.110;7.020;2023-07-20T02:24:40;16.80;99.90
8220;DHT22;4151;51.110;7.020;2023-07-20T02:27:06;16.70;99.90
8220;DHT22;4151;51.110;7.020;2023-07-20T02:29:32;16.70;99.90
8220;DHT22;4151;51.110;7.020;2023-07-20T02:31:57;16.60;99.90
8220;DHT22;4151;51.110;7.020;2023-07-20T02:34:23;16.50;99.90
8220;DHT22;4151;51.110;7.020;2023-07-20T02:36:49;16.40;99.90
8220;DHT22;4151;51.110;7.020;2023-07-20T02:39:14;16.40;99.90
8220;DHT22;4151;51.110;7.020;2023-07-20T02:41:40;16.30;99.90
8220;DHT22;4151;51.110;7.020;2023-07-20T02:44:06;16.20;99.90
8220;DHT22;4151;51.110;7.020;2023-07-20T02:46:32;16.20;99.90
8220;DHT22;4151;51.110;7.020;2023-07-20T02:48:58;16.10;99.90
8220;DHT22;4151;51.110;7.020;2023-07-20T02:51:23;16.10;99.90
8220;DHT22;4151;51.110;7.020;2023-07-20T02:53:49;16.10;99.90
8220;DHT22;4151;51.110;7.020;2023-07-20T02:56:14;16.10;99.90
8220;DHT22;4151;51.110;7.020;2023-07-20T02:58:42;16.20;99.90
8220;DHT22;4151;51.110;7.020;2023-07-20T03:01:11;16.20;99.90
8220;DHT22;4151;51.110;7.020;2023-07-20T03:03:37;16.10;99.90
8220;DHT22;4151;51.110;7.020;2023-07-20T03:06:06;16.20;99.90
8220;DHT22;4151;51.110;7.020;2023-07-20T03:08:34;16.20;99.90
8220;DHT22;4151;51.110;7.020;2023-07-20T03:10:59;16.20;99.90
8220;DHT22;4151;51.110;7.020;2023-07-20T03:13:25;16.20;99.90
8220;DHT22;4151;51.110;7.020;2023-07-20T03:15:52;16.20;99.90
8220;DHT22;4151;51.110;7.020;2023-07-20T03:18:18;16.10;99.90
8220;DHT22;4151;51.110;7.020;2023-07-20T03:20:43;16.10;99.90
8220;DHT22;4151;51.110;7.020;2023-07-20T03:23:09;16.10;99.90
8220;DHT22;4151;51.110;7.020;2023-07-20T03:25:34;16.10;99.90
8220;DHT22;4151;51.110;7.020;2023-07-20T03:28:02;16.10;99.90
8220;DHT22;4151;51.110;7.020;2023-07-20T03:30:28;16.10;99.90
8220;DHT22;4151;51.110;7.020;2023-07-20T03:32:54;16.10;99.90
8220;DHT22;4151;51.110;7.020;2023-07-20T03:35:19;16.10;99.90
8220;DHT22;4151;51.110;7.020;2023-07-20T03:37:45;16.20;99.90
8220;DHT22;4151;51.110;7.020;2023-07-20T03:40:10;16.20;99.90
8220;DHT22;4151;51.110;7.020;2023-07-20T03:42:36;16.20;99.90
8220;DHT22;4151;51.110;7.020;2023-07-20T03:45:02;16.20;99.90
8220;DHT22;4151;51.110;7.020;2023-07-20T03:47:28;16.30;99.90
8220;DHT22;4151;51.110;7.020;2023-07-20T03:49:54;16.30;99.90
8220;DHT22;4151;51.110;7.020;2023-07-20T03:52:19;16.30;99.90
8220;DHT22;4151;51.110;7.020;2023-07-20T03:54:45;16.30;99.90
8220;DHT22;4151;51.110;7.020;2023-07-20T03:57:11;16.40;99.90
8220;DHT22;4151;51.110;7.020;2023-07-20T03:59:37;16.40;99.90
8220;DHT22;4151;51.110;7.020;2023-07-20T04:02:03;16.40;99.90
8220;DHT22;4151;51.110;7.020;2023-07-20T04:04:30;16.30;99.90
8220;DHT22;4151;51.110;7.020;2023-07-20T04:06:56;16.30;99.90
8220;DHT22;4151;51.110;7.020;2023-07-20T04:09:21;16.30;99.90
8220;DHT22;4151;51.110;7.020;2023-07-20T04:11:47;16.30;99.90
8220;DHT22;4151;51.110;7.020;2023-07-20T04:14:12;16.20;99.90
8220;DHT22;4151;51.110;7.020;2023-07-20T04:16:38;16.20;99.90
8220;DHT22;4151;51.110;7.020;2023-07-20T04:19:03;16.30;99.90
8220;DHT22;4151;51.110;7.020;2023-07-20T04:21:29;16.30;99.90
8220;DHT22;4151;51.110;7.020;2023-07-20T04:23:55;16.20;99.90
8220;DHT22;4151;51.110;7.020;2023-07-20T04:26:20;16.30;99.90
8220;DHT22;4151;51.110;7.020;2023-07-20T04:28:46;16.30;99.90
8220;DHT22;4151;51.110;7.020;2023-07-20T04:31:13;16.30;99.90
8220;DHT22;4151;51.110;7.020;2023-07-20T04:33:39;16.30;99.90
8220;DHT22;4151;51.110;7.020;2023-07-20T04:36:05;16.30;99.90
8220;DHT22;4151;51.110;7.020;2023-07-20T04:38:31;16.30;99.90
8220;DHT22;4151;51.110;7.020;2023-07-20T04:40:56;16.20;99.90
8220;DHT22;4151;51.110;7.020;2023-07-20T04:43:22;16.30;99.90
8220;DHT22;4151;51.110;7.020;2023-07-20T04:45:48;16.30;99.90
8220;DHT22;4151;51.110;7.020;2023-07-20T04:48:15;16.30;99.90
8220;DHT22;4151;51.110;7.020;2023-07-20T04:50:41;16.30;99.90
8220;DHT22;4151;51.110;7.020;2023-07-20T04:53:08;16.30;99.90
8220;DHT22;4151;51.110;7.020;2023-07-20T04:55:35;16.30;99.90
8220;DHT22;4151;51.110;7.020;2023-07-20T04:58:02;16.30;99.90
8220;DHT22;4151;51.110;7.020;2023-07-20T05:00:29;16.30;99.90
8220;DHT22;4151;51.110;7.020;2023-07-20T05:02:54;16.30;99.90
8220;DHT22;4151;51.110;7.020;2023-07-20T05:05:20;16.20;99.90
8220;DHT22;4151;51.110;7.020;2023-07-20T05:07:46;16.20;99.90
8220;DHT22;4151;51.110;7.020;2023-07-20T05:10:11;16.20;99.90
8220;DHT22;4151;51.110;7.020;2023-07-20T05:12:37;16.30;99.90
8220;DHT22;4151;51.110;7.020;2023-07-20T05:15:03;16.40;99.90
8220;DHT22;4151;51.110;7.020;2023-07-20T05:17:29;16.40;99.90
8220;DHT22;4151;51.110;7.020;2023-07-20T05:19:55;16.50;99.90
8220;DHT22;4151;51.110;7.020;2023-07-20T05:22:20;16.40;99.90
8220;DHT22;4151;51.110;7.020;2023-07-20T05:24:46;16.30;99.90
8220;DHT22;4151;51.110;7.020;2023-07-20T05:27:11;16.30;99.90
8220;DHT22;4151;51.110;7.020;2023-07-20T05:29:37;16.40;99.90
8220;DHT22;4151;51.110;7.020;2023-07-20T05:32:03;16.40;99.90
8220;DHT22;4151;51.110;7.020;2023-07-20T05:34:29;16.40;99.90
8220;DHT22;4151;51.110;7.020;2023-07-20T05:36:55;16.40;99.90
8220;DHT22;4151;51.110;7.020;2023-07-20T05:39:20;16.50;99.90
8220;DHT22;4151;51.110;7.020;2023-07-20T05:41:46;16.50;99.90
8220;DHT22;4151;51.110;7.020;2023-07-20T05:44:12;16.50;99.90
8220;DHT22;4151;51.110;7.020;2023-07-20T05:46:37;16.70;99.90
8220;DHT22;4151;51.110;7.020;2023-07-20T05:49:03;16.80;99.90
8220;DHT22;4151;51.110;7.020;2023-07-20T05:51:29;16.90;99.90
8220;DHT22;4151;51.110;7.020;2023-07-20T05:53:54;16.80;99.90
8220;DHT22;4151;51.110;7.020;2023-07-20T05:56:20;16.80;99.90
8220;DHT22;4151;51.110;7.020;2023-07-20T05:58:45;17.00;99.90
8220;DHT22;4151;51.110;7.020;2023-07-20T06:01:11;16.90;99.90
8220;DHT22;4151;51.110;7.020;2023-07-20T06:03:36;16.90;99.90
8220;DHT22;4151;51.110;7.020;2023-07-20T06:06:03;16.90;99.90
8220;DHT22;4151;51.110;7.020;2023-07-20T06:08:32;17.10;99.90
8220;DHT22;4151;51.110;7.020;2023-07-20T06:10:57;17.00;99.90
8220;DHT22;4151;51.110;7.020;2023-07-20T06:13:23;17.10;99.90
8220;DHT22;4151;51.110;7.020;2023-07-20T06:15:49;17.20;99.90
8220;DHT22;4151;51.110;7.020;2023-07-20T06:18:15;17.30;99.90
8220;DHT22;4151;51.110;7.020;2023-07-20T06:20:40;17.20;99.90
8220;DHT22;4151;51.110;7.020;2023-07-20T06:23:06;17.20;99.90
8220;DHT22;4151;51.110;7.020;2023-07-20T06:25:32;17.20;99.90
8220;DHT22;4151;51.110;7.020;2023-07-20T06:27:57;17.30;99.90
8220;DHT22;4151;51.110;7.020;2023-07-20T06:30:24;17.40;99.90
8220;DHT22;4151;51.110;7.020;2023-07-20T06:32:49;17.40;99.90
8220;DHT22;4151;51.110;7.020;2023-07-20T06:35:15;17.50;99.90
8220;DHT22;4151;51.110;7.020;2023-07-20T06:37:41;17.50;99.90
8220;DHT22;4151;51.110;7.020;2023-07-20T06:40:07;17.70;99.90
8220;DHT22;4151;51.110;7.020;2023-07-20T06:42:35;18.00;99.90
8220;DHT22;4151;51.110;7.020;2023-07-20T06:45:00;18.00;99.90
8220;DHT22;4151;51.110;7.020;2023-07-20T06:47:26;17.80;99.90
8220;DHT22;4151;51.110;7.020;2023-07-20T06:49:52;17.70;99.90
8220;DHT22;4151;51.110;7.020;2023-07-20T06:52:17;17.50;99.90
8220;DHT22;4151;51.110;7.020;2023-07-20T06:54:43;17.60;99.90
8220;DHT22;4151;51.110;7.020;2023-07-20T06:57:09;17.80;99.90
8220;DHT22;4151;51.110;7.020;2023-07-20T06:59:34;18.20;99.90
8220;DHT22;4151;51.110;7.020;2023-07-20T07:02:00;18.40;99.90
8220;DHT22;4151;51.110;7.020;2023-07-20T07:04:25;18.50;99.90
8220;DHT22;4151;51.110;7.020;2023-07-20T07:06:51;18.60;99.90
8220;DHT22;4151;51.110;7.020;2023-07-20T07:09:17;18.90;99.90
8220;DHT22;4151;51.110;7.020;2023-07-20T07:11:43;19.00;99.90
8220;DHT22;4151;51.110;7.020;2023-07-20T07:14:09;18.80;99.90
8220;DHT22;4151;51.110;7.020;2023-07-20T07:16:35;18.30;99.90
8220;DHT22;4151;51.110;7.020;2023-07-20T07:19:01;18.00;99.90
8220;DHT22;4151;51.110;7.020;2023-07-20T07:21:26;18.10;99.90
8220;DHT22;4151;51.110;7.020;2023-07-20T07:23:52;18.10;99.90
8220;DHT22;4151;51.110;7.020;2023-07-20T07:26:19;17.80;99.90
8220;DHT22;4151;51.110;7.020;2023-07-20T07:28:45;17.80;99.90
8220;DHT22;4151;51.110;7.020;2023-07-20T07:31:11;17.80;99.90
8220;DHT22;4151;51.110;7.020;2023-07-20T07:33:36;17.80;99.90
8220;DHT22;4151;51.110;7.020;2023-07-20T07:36:02;17.90;99.90
8220;DHT22;4151;51.110;7.020;2023-07-20T07:38:28;18.00;99.90
8220;DHT22;4151;51.110;7.020;2023-07-20T07:40:53;18.20;99.90
8220;DHT22;4151;51.110;7.020;2023-07-20T07:43:19;18.30;99.90
8220;DHT22;4151;51.110;7.020;2023-07-20T07:45:44;18.50;99.90
8220;DHT22;4151;51.110;7.020;2023-07-20T07:48:10;18.30;99.90
8220;DHT22;4151;51.110;7.020;2023-07-20T07:50:39;18.40;99.90
8220;DHT22;4151;51.110;7.020;2023-07-20T07:53:08;18.50;99.90
8220;DHT22;4151;51.110;7.020;2023-07-20T07:55:35;18.60;99.90
8220;DHT22;4151;51.110;7.020;2023-07-20T07:58:01;18.90;99.90
8220;DHT22;4151;51.110;7.020;2023-07-20T08:00:26;19.10;99.90
8220;DHT22;4151;51.110;7.020;2023-07-20T08:02:52;19.50;99.90
8220;DHT22;4151;51.110;7.020;2023-07-20T08:05:17;19.90;99.90
8220;DHT22;4151;51.110;7.020;2023-07-20T08:07:43;19.90;99.90
8220;DHT22;4151;51.110;7.020;2023-07-20T08:10:09;19.40;99.90
8220;DHT22;4151;51.110;7.020;2023-07-20T08:12:35;19.30;99.90
8220;DHT22;4151;51.110;7.020;2023-07-20T08:15:00;19.50;99.90
8220;DHT22;4151;51.110;7.020;2023-07-20T08:17:26;19.90;99.90
8220;DHT22;4151;51.110;7.020;2023-07-20T08:19:51;20.20;99.90
8220;DHT22;4151;51.110;7.020;2023-07-20T08:22:17;20.50;99.90
8220;DHT22;4151;51.110;7.020;2023-07-20T08:24:43;20.70;99.90
8220;DHT22;4151;51.110;7.020;2023-07-20T08:27:09;20.80;99.90
8220;DHT22;4151;51.110;7.020;2023-07-20T08:29:35;20.60;99.90
8220;DHT22;4151;51.110;7.020;2023-07-20T08:32:02;20.60;99.90
8220;DHT22;4151;51.110;7.020;2023-07-20T08:34:27;20.30;99.90
8220;DHT22;4151;51.110;7.020;2023-07-20T08:36:53;20.10;99.90
8220;DHT22;4151;51.110;7.020;2023-07-20T08:39:19;19.50;99.90
8220;DHT22;4151;51.110;7.020;2023-07-20T08:41:46;19.00;99.90
8220;DHT22;4151;51.110;7.020;2023-07-20T08:44:12;18.80;99.90
8220;DHT22;4151;51.110;7.020;2023-07-20T08:46:38;18.90;99.90
8220;DHT22;4151;51.110;7.020;2023-07-20T08:49:04;19.30;99.90
8220;DHT22;4151;51.110;7.020;2023-07-20T08:51:30;19.90;99.90
8220;DHT22;4151;51.110;7.020;2023-07-20T08:53:56;20.60;99.90
8220;DHT22;4151;51.110;7.020;2023-07-20T08:56:24;21.00;99.90
8220;DHT22;4151;51.110;7.020;2023-07-20T08:58:52;20.80;99.90
8220;DHT22;4151;51.110;7.020;2023-07-20T09:01:19;20.80;99.90
8220;DHT22;4151;51.110;7.020;2023-07-20T09:03:46;20.70;99.90
8220;DHT22;4151;51.110;7.020;2023-07-20T09:06:15;21.10;99.90
8220;DHT22;4151;51.110;7.020;2023-07-20T09:08:41;21.60;99.90
8220;DHT22;4151;51.110;7.020;2023-07-20T09:11:08;22.20;99.90
8220;DHT22;4151;51.110;7.020;2023-07-20T09:13:34;22.70;99.90
8220;DHT22;4151;51.110;7.020;2023-07-20T09:16:00;22.80;99.90
8220;DHT22;4151;51.110;7.020;2023-07-20T09:18:30;23.60;99.90
8220;DHT22;4151;51.110;7.020;2023-07-20T09:21:02;24.30;99.90
8220;DHT22;4151;51.110;7.020;2023-07-20T09:23:35;24.40;99.90
8220;DHT22;4151;51.110;7.020;2023-07-20T09:26:14;24.30;99.90
8220;DHT22;4151;51.110;7.020;2023-07-20T09:28:49;24.20;99.90
8220;DHT22;4151;51.110;7.020;2023-07-20T09:31:20;24.10;99.90
8220;DHT22;4151;51.110;7.020;2023-07-20T09:33:47;23.90;99.90
8220;DHT22;4151;51.110;7.020;2023-07-20T09:36:13;23.30;99.90
8220;DHT22;4151;51.110;7.020;2023-07-20T09:38:41;23.00;99.90
8220;DHT22;4151;51.110;7.020;2023-07-20T09:41:07;22.30;99.90
8220;DHT22;4151;51.110;7.020;2023-07-20T09:43:34;22.30;99.90
8220;DHT22;4151;51.110;7.020;2023-07-20T09:46:00;22.50;99.90
8220;DHT22;4151;51.110;7.020;2023-07-20T09:48:26;23.00;99.90
8220;DHT22;4151;51.110;7.020;2023-07-20T09:50:53;23.90;99.90
8220;DHT22;4151;51.110;7.020;2023-07-20T09:53:19;24.10;99.90
8220;DHT22;4151;51.110;7.020;2023-07-20T09:55:46;23.90;99.90
8220;DHT22;4151;51.110;7.020;2023-07-20T09:58:13;23.40;99.90
8220;DHT22;4151;51.110;7.020;2023-07-20T10:00:41;23.30;99.90
8220;DHT22;4151;51.110;7.020;2023-07-20T10:03:11;23.20;99.90
8220;DHT22;4151;51.110;7.020;2023-07-20T10:05:41;23.70;99.90
8220;DHT22;4151;51.110;7.020;2023-07-20T10:08:11;23.30;99.90
8220;DHT22;4151;51.110;7.020;2023-07-20T10:10:40;23.60;99.90
8220;DHT22;4151;51.110;7.020;2023-07-20T10:13:13;23.50;99.90
8220;DHT22;4151;51.110;7.020;2023-07-20T10:15:46;23.20;99.90
8220;DHT22;4151;51.110;7.020;2023-07-20T10:18:22;22.80;99.90
8220;DHT22;4151;51.110;7.020;2023-07-20T10:20:49;22.60;99.90
8220;DHT22;4151;51.110;7.020;2023-07-20T10:23:17;22.70;99.90
8220;DHT22;4151;51.110;7.020;2023-07-20T10:25:42;23.10;99.90
8220;DHT22;4151;51.110;7.020;2023-07-20T10:28:10;23.50;99.90
8220;DHT22;4151;51.110;7.020;2023-07-20T10:30:36;24.20;99.90
8220;DHT22;4151;51.110;7.020;2023-07-20T10:33:03;25.10;99.90
8220;DHT22;4151;51.110;7.020;2023-07-20T10:35:29;26.20;99.90
8220;DHT22;4151;51.110;7.020;2023-07-20T10:38:01;26.70;99.90
8220;DHT22;4151;51.110;7.020;2023-07-20T10:41:12;26.70;99.90
8220;DHT22;4151;51.110;7.020;2023-07-20T10:43:36;25.30;99.90
8220;DHT22;4151;51.110;7.020;2023-07-20T10:46:02;24.60;99.90
8220;DHT22;4151;51.110;7.020;2023-07-20T10:48:28;24.50;99.90
8220;DHT22;4151;51.110;7.020;2023-07-20T10:51:13;25.70;99.90
8220;DHT22;4151;51.110;7.020;2023-07-20T10:53:39;26.30;99.90
8220;DHT22;4151;51.110;7.020;2023-07-20T10:56:07;26.60;99.90
8220;DHT22;4151;51.110;7.020;2023-07-20T10:58:33;25.60;99.90
8220;DHT22;4151;51.110;7.020;2023-07-20T11:01:03;25.00;99.90
8220;DHT22;4151;51.110;7.020;2023-07-20T11:03:37;25.40;99.90
8220;DHT22;4151;51.110;7.020;2023-07-20T11:08:55;24.80;99.90
8220;DHT22;4151;51.110;7.020;2023-07-20T11:11:33;25.20;99.90
8220;DHT22;4151;51.110;7.020;2023-07-20T11:14:01;25.50;99.90
8220;DHT22;4151;51.110;7.020;2023-07-20T11:19:14;25.20;99.90
8220;DHT22;4151;51.110;7.020;2023-07-20T11:21:42;25.40;99.90
8220;DHT22;4151;51.110;7.020;2023-07-20T11:24:08;25.50;99.90
8220;DHT22;4151;51.110;7.020;2023-07-20T11:26:49;25.60;99.90
8220;DHT22;4151;51.110;7.020;2023-07-20T11:29:17;25.70;99.90
8220;DHT22;4151;51.110;7.020;2023-07-20T11:31:44;25.60;99.90
8220;DHT22;4151;51.110;7.020;2023-07-20T11:34:18;25.80;99.90
8220;DHT22;4151;51.110;7.020;2023-07-20T11:36:45;26.10;99.90
8220;DHT22;4151;51.110;7.020;2023-07-20T11:39:15;26.20;99.90
8220;DHT22;4151;51.110;7.020;2023-07-20T11:44:13;26.40;99.90
8220;DHT22;4151;51.110;7.020;2023-07-20T11:46:41;26.50;99.90
8220;DHT22;4151;51.110;7.020;2023-07-20T11:49:08;27.10;99.90
8220;DHT22;4151;51.110;7.020;2023-07-20T11:51:34;27.50;99.90
8220;DHT22;4151;51.110;7.020;2023-07-20T11:54:01;27.30;99.90
8220;DHT22;4151;51.110;7.020;2023-07-20T11:56:27;27.10;99.90
8220;DHT22;4151;51.110;7.020;2023-07-20T11:59:00;26.70;99.90
8220;DHT22;4151;51.110;7.020;2023-07-20T12:01:28;26.30;99.90
8220;DHT22;4151;51.110;7.020;2023-07-20T12:04:01;25.70;99.90
8220;DHT22;4151;51.110;7.020;2023-07-20T12:06:30;25.10;99.90
8220;DHT22;4151;51.110;7.020;2023-07-20T12:08:57;24.90;99.90
8220;DHT22;4151;51.110;7.020;2023-07-20T12:11:36;24.80;99.90
8220;DHT22;4151;51.110;7.020;2023-07-20T12:14:03;24.10;99.90
8220;DHT22;4151;51.110;7.020;2023-07-20T12:16:30;23.90;99.90
8220;DHT22;4151;51.110;7.020;2023-07-20T12:19:00;23.30;99.90
8220;DHT22;4151;51.110;7.020;2023-07-20T12:21:26;22.80;99.90
8220;DHT22;4151;51.110;7.020;2023-07-20T12:23:52;22.80;99.90
8220;DHT22;4151;51.110;7.020;2023-07-20T12:26:17;22.90;99.90
8220;DHT22;4151;51.110;7.020;2023-07-20T12:28:43;22.50;99.90
8220;DHT22;4151;51.110;7.020;2023-07-20T12:31:09;22.90;99.90
8220;DHT22;4151;51.110;7.020;2023-07-20T12:33:36;23.30;99.90
8220;DHT22;4151;51.110;7.020;2023-07-20T12:36:02;23.80;99.90
8220;DHT22;4151;51.110;7.020;2023-07-20T12:38:28;24.10;99.90
8220;DHT22;4151;51.110;7.020;2023-07-20T12:40:54;24.30;99.90
8220;DHT22;4151;51.110;7.020;2023-07-20T12:43:24;24.30;99.90
8220;DHT22;4151;51.110;7.020;2023-07-20T12:45:49;24.60;99.90
8220;DHT22;4151;51.110;7.020;2023-07-20T12:48:15;24.80;99.90
8220;DHT22;4151;51.110;7.020;2023-07-20T12:50:40;24.70;99.90
8220;DHT22;4151;51.110;7.020;2023-07-20T12:53:06;25.30;99.90
8220;DHT22;4151;51.110;7.020;2023-07-20T12:55:32;26.50;99.90
8220;DHT22;4151;51.110;7.020;2023-07-20T12:57:57;27.10;99.90
8220;DHT22;4151;51.110;7.020;2023-07-20T13:00:23;27.60;99.90
8220;DHT22;4151;51.110;7.020;2023-07-20T13:02:49;26.20;99.90
8220;DHT22;4151;51.110;7.020;2023-07-20T13:05:15;24.80;99.90
8220;DHT22;4151;51.110;7.020;2023-07-20T13:07:42;24.20;99.90
8220;DHT22;4151;51.110;7.020;2023-07-20T13:10:09;23.50;99.90
8220;DHT22;4151;51.110;7.020;2023-07-20T13:12:35;23.00;99.90
8220;DHT22;4151;51.110;7.020;2023-07-20T13:15:08;22.70;99.90
8220;DHT22;4151;51.110;7.020;2023-07-20T13:17:38;22.80;99.90
8220;DHT22;4151;51.110;7.020;2023-07-20T13:20:05;22.90;99.90
8220;DHT22;4151;51.110;7.020;2023-07-20T13:22:33;22.50;99.90
8220;DHT22;4151;51.110;7.020;2023-07-20T13:24:59;22.50;99.90
8220;DHT22;4151;51.110;7.020;2023-07-20T13:27:25;22.50;99.90
8220;DHT22;4151;51.110;7.020;2023-07-20T13:29:53;22.70;99.90
8220;DHT22;4151;51.110;7.020;2023-07-20T13:32:19;22.90;99.90
8220;DHT22;4151;51.110;7.020;2023-07-20T13:34:45;23.50;99.90
8220;DHT22;4151;51.110;7.020;2023-07-20T13:37:11;23.60;99.90
8220;DHT22;4151;51.110;7.020;2023-07-20T13:39:37;23.90;99.90
8220;DHT22;4151;51.110;7.020;2023-07-20T13:42:03;24.50;99.90
8220;DHT22;4151;51.110;7.020;2023-07-20T13:44:31;24.50;99.90
8220;DHT22;4151;51.110;7.020;2023-07-20T13:46:56;24.60;99.90
8220;DHT22;4151;51.110;7.020;2023-07-20T13:49:22;24.00;99.90
8220;DHT22;4151;51.110;7.020;2023-07-20T13:51:48;23.50;99.90
8220;DHT22;4151;51.110;7.020;2023-07-20T13:54:14;23.70;99.90
8220;DHT22;4151;51.110;7.020;2023-07-20T13:56:39;23.90;99.90
8220;DHT22;4151;51.110;7.020;2023-07-20T13:59:05;24.30;99.90
8220;DHT22;4151;51.110;7.020;2023-07-20T14:01:31;24.00;99.90
8220;DHT22;4151;51.110;7.020;2023-07-20T14:03:59;24.80;99.90
8220;DHT22;4151;51.110;7.020;2023-07-20T14:06:26;24.80;99.90
8220;DHT22;4151;51.110;7.020;2023-07-20T14:08:51;24.50;99.90
8220;DHT22;4151;51.110;7.020;2023-07-20T14:11:18;24.50;99.90
8220;DHT22;4151;51.110;7.020;2023-07-20T14:13:44;25.00;99.90
8220;DHT22;4151;51.110;7.020;2023-07-20T14:16:09;24.90;99.90
8220;DHT22;4151;51.110;7.020;2023-07-20T14:18:35;24.90;99.90
8220;DHT22;4151;51.110;7.020;2023-07-20T14:21:00;25.50;99.90
8220;DHT22;4151;51.110;7.020;2023-07-20T14:23:28;26.00;99.90
8220;DHT22;4151;51.110;7.020;2023-07-20T14:25:54;25.90;99.90
8220;DHT22;4151;51.110;7.020;2023-07-20T14:28:20;25.70;99.90
8220;DHT22;4151;51.110;7.020;2023-07-20T14:30:46;25.90;99.90
8220;DHT22;4151;51.110;7.020;2023-07-20T14:33:12;25.70;99.90
8220;DHT22;4151;51.110;7.020;2023-07-20T14:35:37;25.50;99.90
8220;DHT22;4151;51.110;7.020;2023-07-20T14:38:03;25.50;99.90
8220;DHT22;4151;51.110;7.020;2023-07-20T14:40:29;25.30;99.90
8220;DHT22;4151;51.110;7.020;2023-07-20T14:42:55;25.10;99.90
8220;DHT22;4151;51.110;7.020;2023-07-20T14:45:21;24.90;99.90
8220;DHT22;4151;51.110;7.020;2023-07-20T14:47:47;24.70;99.90
8220;DHT22;4151;51.110;7.020;2023-07-20T14:50:19;24.60;99.90
8220;DHT22;4151;51.110;7.020;2023-07-20T14:52:44;24.40;99.90
8220;DHT22;4151;51.110;7.020;2023-07-20T14:55:10;24.30;99.90
8220;DHT22;4151;51.110;7.020;2023-07-20T14:57:36;24.50;99.90
8220;DHT22;4151;51.110;7.020;2023-07-20T15:00:04;25.00;99.90
8220;DHT22;4151;51.110;7.020;2023-07-20T15:02:39;25.50;99.90
8220;DHT22;4151;51.110;7.020;2023-07-20T15:05:08;27.40;99.90
8220;DHT22;4151;51.110;7.020;2023-07-20T15:07:34;29.40;99.90
8220;DHT22;4151;51.110;7.020;2023-07-20T15:10:01;31.70;99.90
8220;DHT22;4151;51.110;7.020;2023-07-20T15:12:27;32.60;96.30
8220;DHT22;4151;51.110;7.020;2023-07-20T15:15:08;33.90;91.90
8220;DHT22;4151;51.110;7.020;2023-07-20T15:17:35;34.10;88.20
8220;DHT22;4151;51.110;7.020;2023-07-20T15:20:03;34.00;85.60
8220;DHT22;4151;51.110;7.020;2023-07-20T15:22:32;34.50;85.10
8220;DHT22;4151;51.110;7.020;2023-07-20T15:24:58;34.90;82.90
8220;DHT22;4151;51.110;7.020;2023-07-20T15:27:24;35.10;80.40
8220;DHT22;4151;51.110;7.020;2023-07-20T15:29:50;35.50;79.50
8220;DHT22;4151;51.110;7.020;2023-07-20T15:32:17;37.00;75.80
8220;DHT22;4151;51.110;7.020;2023-07-20T15:34:43;36.10;73.90
8220;DHT22;4151;51.110;7.020;2023-07-20T15:37:10;35.70;74.50
8220;DHT22;4151;51.110;7.020;2023-07-20T15:39:36;34.80;74.10
8220;DHT22;4151;51.110;7.020;2023-07-20T15:42:01;33.30;77.00
8220;DHT22;4151;51.110;7.020;2023-07-20T15:44:28;33.20;77.50
8220;DHT22;4151;51.110;7.020;2023-07-20T15:46:53;34.40;76.10
8220;DHT22;4151;51.110;7.020;2023-07-20T15:49:20;34.90;72.70
8220;DHT22;4151;51.110;7.020;2023-07-20T15:51:46;34.80;73.30
8220;DHT22;4151;51.110;7.020;2023-07-20T15:54:13;36.10;72.20
8220;DHT22;4151;51.110;7.020;2023-07-20T15:56:39;36.30;71.80
8220;DHT22;4151;51.110;7.020;2023-07-20T15:59:06;38.00;69.40
8220;DHT22;4151;51.110;7.020;2023-07-20T16:01:32;38.40;68.40
8220;DHT22;4151;51.110;7.020;2023-07-20T16:03:58;39.70;65.70
8220;DHT22;4151;51.110;7.020;2023-07-20T16:08:10;39.80;62.30
8220;DHT22;4151;51.110;7.020;2023-07-20T16:10:35;37.90;64.00
8220;DHT22;4151;51.110;7.020;2023-07-20T16:13:01;37.30;65.00
8220;DHT22;4151;51.110;7.020;2023-07-20T16:15:26;37.00;64.90
8220;DHT22;4151;51.110;7.020;2023-07-20T16:17:52;37.90;64.10